createdAt,value
2019-03-27T00:00:41.158Z,6.60
2019-03-27T00:01:41.152Z,6.57
2019-03-27T00:02:41.143Z,6.45
2019-03-27T00:03:41.136Z,6.45
2019-03-27T00:04:41.129Z,6.45
2019-03-27T00:05:41.123Z,6.48
2019-03-27T00:06:41.116Z,6.38
2019-03-27T00:07:41.109Z,6.33
2019-03-27T00:08:41.107Z,6.24
2019-03-27T00:09:41.096Z,6.28
2019-03-27T00:10:41.090Z,6.30
2019-03-27T00:11:41.088Z,6.28
2019-03-27T00:12:41.076Z,6.38
2019-03-27T00:13:41.069Z,6.41
2019-03-27T00:14:41.066Z,6.46
2019-03-27T00:15:41.059Z,6.41
2019-03-27T00:16:41.049Z,6.41
2019-03-27T00:17:41.042Z,6.42
2019-03-27T00:18:41.040Z,6.36
2019-03-27T00:19:41.028Z,6.33
2019-03-27T00:20:41.022Z,6.36
2019-03-27T00:21:41.012Z,6.35
2019-03-27T00:22:41.007Z,6.36
2019-03-27T00:23:41.001Z,6.30
2019-03-27T00:24:40.993Z,6.30
2019-03-27T00:25:40.987Z,6.30
2019-03-27T00:26:40.981Z,6.26
2019-03-27T00:27:40.975Z,6.17
2019-03-27T00:28:40.969Z,6.26
2019-03-27T00:29:40.958Z,6.20
2019-03-27T00:30:40.953Z,6.27
2019-03-27T00:31:40.948Z,6.28
2019-03-27T00:32:40.939Z,6.30
2019-03-27T00:33:40.935Z,6.26
2019-03-27T00:34:40.925Z,6.27
2019-03-27T00:35:40.919Z,6.28
2019-03-27T00:36:40.919Z,6.27
2019-03-27T00:37:40.904Z,6.30
2019-03-27T00:38:40.902Z,6.14
2019-03-27T00:39:40.890Z,6.24
2019-03-27T00:40:40.883Z,6.22
2019-03-27T00:41:40.877Z,6.28
2019-03-27T00:42:40.889Z,6.27
2019-03-27T00:43:40.863Z,6.24
2019-03-27T00:44:40.857Z,6.28
2019-03-27T00:45:40.847Z,6.16
2019-03-27T00:46:40.843Z,6.19
2019-03-27T00:47:40.835Z,6.31
2019-03-27T00:48:40.829Z,6.16
2019-03-27T00:49:40.821Z,6.28
2019-03-27T00:50:40.814Z,6.20
2019-03-27T00:51:40.806Z,6.19
2019-03-27T00:52:40.800Z,6.19
2019-03-27T00:53:40.793Z,6.35
2019-03-27T00:54:40.785Z,6.22
2019-03-27T00:55:40.780Z,6.19
2019-03-27T00:56:40.773Z,6.24
2019-03-27T00:57:40.764Z,6.30
2019-03-27T00:58:40.758Z,6.30
2019-03-27T00:59:40.752Z,6.36
2019-03-27T01:00:40.744Z,6.35
2019-03-27T01:01:40.737Z,6.39
2019-03-27T01:02:40.729Z,6.45
2019-03-27T01:03:40.729Z,6.48
2019-03-27T01:04:40.715Z,6.48
2019-03-27T01:05:40.711Z,6.44
2019-03-27T01:06:40.703Z,6.48
2019-03-27T01:07:40.696Z,6.57
2019-03-27T01:08:40.687Z,6.49
2019-03-27T01:09:40.680Z,6.48
2019-03-27T01:10:40.672Z,6.56
2019-03-27T01:11:40.666Z,6.64
2019-03-27T01:12:40.659Z,6.52
2019-03-27T01:13:40.656Z,6.60
2019-03-27T01:14:40.644Z,6.56
2019-03-27T01:15:40.639Z,6.60
2019-03-27T01:16:40.632Z,6.59
2019-03-27T01:17:40.623Z,6.59
2019-03-27T01:18:40.615Z,6.57
2019-03-27T01:19:40.610Z,6.60
2019-03-27T01:20:40.603Z,6.56
2019-03-27T01:21:40.596Z,6.64
2019-03-27T01:22:40.589Z,6.70
2019-03-27T01:23:40.582Z,6.67
2019-03-27T01:24:40.576Z,6.64
2019-03-27T01:25:40.571Z,6.64
2019-03-27T01:26:40.561Z,6.69
2019-03-27T01:27:40.552Z,6.70
2019-03-27T01:28:40.548Z,6.62
2019-03-27T01:29:40.538Z,6.70
2019-03-27T01:30:40.533Z,6.69
2019-03-27T01:31:40.526Z,6.66
2019-03-27T01:32:40.517Z,6.77
2019-03-27T01:33:40.510Z,6.69
2019-03-27T01:34:40.504Z,6.72
2019-03-27T01:35:40.498Z,6.62
2019-03-27T01:36:40.491Z,6.66
2019-03-27T01:37:40.482Z,6.77
2019-03-27T01:38:40.479Z,6.69
2019-03-27T01:39:40.469Z,6.70
2019-03-27T01:40:40.461Z,6.75
2019-03-27T01:41:40.454Z,6.66
2019-03-27T01:42:40.450Z,6.62
2019-03-27T01:43:40.442Z,6.66
2019-03-27T01:44:40.434Z,6.69
2019-03-27T01:45:52.377Z,6.69
2019-03-27T01:46:40.421Z,6.70
2019-03-27T01:47:40.412Z,6.66
2019-03-27T01:48:40.405Z,6.60
2019-03-27T01:49:40.400Z,6.59
2019-03-27T01:50:40.392Z,6.59
2019-03-27T01:51:40.386Z,6.52
2019-03-27T01:52:40.378Z,6.54
2019-03-27T01:53:40.371Z,6.48
2019-03-27T01:54:40.366Z,6.51
2019-03-27T01:55:40.359Z,6.60
2019-03-27T01:56:40.352Z,6.49
2019-03-27T01:57:40.343Z,6.46
2019-03-27T01:58:40.337Z,6.48
2019-03-27T01:59:40.328Z,6.41
2019-03-27T02:00:40.324Z,6.24
2019-03-27T02:01:40.316Z,6.30
2019-03-27T02:02:40.306Z,6.35
2019-03-27T02:03:40.345Z,6.26
2019-03-27T02:04:40.293Z,6.24
2019-03-27T02:05:40.285Z,6.19
2019-03-27T02:06:40.280Z,6.16
2019-03-27T02:07:40.274Z,6.05
2019-03-27T02:08:40.265Z,5.98
2019-03-27T02:09:40.259Z,5.86
2019-03-27T02:10:40.251Z,5.93
2019-03-27T02:11:40.243Z,5.94
2019-03-27T02:12:40.236Z,5.84
2019-03-27T02:13:40.228Z,5.94
2019-03-27T02:14:40.222Z,5.89
2019-03-27T02:15:40.217Z,5.86
2019-03-27T02:16:40.208Z,5.79
2019-03-27T02:17:40.201Z,5.79
2019-03-27T02:18:40.193Z,5.64
2019-03-27T02:19:40.187Z,5.68
2019-03-27T02:20:40.180Z,5.59
2019-03-27T02:21:40.172Z,5.56
2019-03-27T02:22:40.165Z,5.68
2019-03-27T02:23:40.240Z,5.66
2019-03-27T02:24:40.153Z,5.82
2019-03-27T02:25:40.147Z,5.83
2019-03-27T02:26:40.137Z,5.80
2019-03-27T02:27:40.138Z,5.82
2019-03-27T02:28:40.123Z,5.75
2019-03-27T02:29:40.115Z,5.76
2019-03-27T02:30:40.110Z,5.82
2019-03-27T02:31:40.103Z,5.83
2019-03-27T02:32:40.094Z,5.94
2019-03-27T02:33:40.086Z,6.01
2019-03-27T02:34:40.081Z,5.97
2019-03-27T02:35:40.073Z,5.97
2019-03-27T02:36:40.068Z,5.99
2019-03-27T02:37:40.073Z,5.99
2019-03-27T02:38:40.054Z,5.93
2019-03-27T02:39:40.045Z,5.90
2019-03-27T02:40:40.037Z,5.86
2019-03-27T02:41:40.041Z,5.98
2019-03-27T02:42:40.028Z,5.93
2019-03-27T02:43:40.014Z,5.83
2019-03-27T02:44:40.016Z,5.90
2019-03-27T02:45:40.001Z,5.82
2019-03-27T02:46:39.993Z,5.83
2019-03-27T02:47:39.986Z,5.79
2019-03-27T02:48:39.982Z,5.86
2019-03-27T02:49:39.975Z,5.86
2019-03-27T02:50:39.964Z,5.83
2019-03-27T02:51:39.957Z,5.84
2019-03-27T02:52:39.949Z,5.79
2019-03-27T02:53:39.939Z,5.76
2019-03-27T02:54:39.934Z,5.76
2019-03-27T02:55:39.926Z,5.68
2019-03-27T02:56:39.918Z,5.59
2019-03-27T02:57:39.914Z,5.54
2019-03-27T02:58:39.916Z,5.44
2019-03-27T02:59:39.902Z,5.48
2019-03-27T03:00:39.891Z,5.50
2019-03-27T03:01:39.890Z,5.44
2019-03-27T03:02:39.882Z,5.38
2019-03-27T03:03:39.871Z,5.33
2019-03-27T03:04:39.868Z,5.36
2019-03-27T03:05:39.945Z,5.41
2019-03-27T03:06:39.846Z,5.41
2019-03-27T03:07:39.856Z,5.36
2019-03-27T03:08:39.835Z,5.39
2019-03-27T03:09:39.824Z,5.44
2019-03-27T03:10:39.823Z,5.35
2019-03-27T03:11:39.809Z,5.39
2019-03-27T03:12:39.809Z,5.38
2019-03-27T03:13:39.802Z,5.38
2019-03-27T03:14:39.792Z,5.35
2019-03-27T03:15:39.784Z,5.39
2019-03-27T03:16:42.768Z,5.36
2019-03-27T03:17:39.767Z,5.32
2019-03-27T03:18:39.763Z,5.36
2019-03-27T03:19:39.754Z,5.23
2019-03-27T03:20:39.744Z,5.10
2019-03-27T03:21:39.738Z,5.12
2019-03-27T03:22:39.731Z,5.04
2019-03-27T03:23:39.723Z,4.92
2019-03-27T03:24:39.716Z,4.86
2019-03-27T03:25:39.709Z,4.86
2019-03-27T03:26:39.702Z,4.75
2019-03-27T03:27:39.701Z,4.78
2019-03-27T03:28:39.688Z,4.63
2019-03-27T03:29:39.702Z,4.66
2019-03-27T03:30:39.675Z,4.66
2019-03-27T03:31:39.671Z,4.62
2019-03-27T03:32:39.780Z,4.66
2019-03-27T03:33:39.660Z,4.55
2019-03-27T03:34:39.656Z,4.66
2019-03-27T03:35:39.649Z,4.68
2019-03-27T03:36:39.630Z,4.82
2019-03-27T03:37:39.621Z,4.90
2019-03-27T03:38:39.616Z,5.02
2019-03-27T03:39:39.607Z,5.21
2019-03-27T03:40:39.617Z,5.28
2019-03-27T03:41:39.594Z,5.38
2019-03-27T03:42:39.586Z,5.44
2019-03-27T03:43:39.578Z,5.46
2019-03-27T03:44:39.574Z,5.36
2019-03-27T03:45:39.565Z,5.36
2019-03-27T03:46:39.561Z,5.26
2019-03-27T03:47:39.548Z,5.32
2019-03-27T03:48:39.544Z,5.36
2019-03-27T03:49:39.533Z,5.36
2019-03-27T03:50:39.530Z,5.33
2019-03-27T03:51:39.522Z,5.46
2019-03-27T03:52:39.514Z,5.38
2019-03-27T03:53:39.506Z,5.39
2019-03-27T03:54:39.500Z,5.44
2019-03-27T03:55:39.494Z,5.50
2019-03-27T03:56:39.484Z,5.50
2019-03-27T03:57:39.484Z,5.48
2019-03-27T03:58:39.478Z,5.53
2019-03-27T03:59:39.463Z,5.59
2019-03-27T04:00:39.454Z,5.62
2019-03-27T04:01:39.447Z,5.61
2019-03-27T04:02:39.442Z,5.68
2019-03-27T04:03:39.434Z,5.53
2019-03-27T04:04:39.431Z,5.65
2019-03-27T04:05:39.435Z,5.64
2019-03-27T04:06:39.412Z,5.76
2019-03-27T04:07:39.406Z,5.79
2019-03-27T04:08:39.398Z,5.83
2019-03-27T04:09:39.391Z,5.86
2019-03-27T04:10:39.384Z,5.90
2019-03-27T04:11:39.378Z,6.02
2019-03-27T04:12:39.370Z,5.99
2019-03-27T04:13:39.361Z,6.04
2019-03-27T04:14:39.358Z,6.04
2019-03-27T04:15:39.349Z,6.07
2019-03-27T04:16:39.345Z,6.16
2019-03-27T04:17:39.333Z,6.17
2019-03-27T04:18:39.326Z,6.16
2019-03-27T04:19:39.320Z,6.27
2019-03-27T04:20:39.320Z,6.30
2019-03-27T04:21:39.306Z,6.26
2019-03-27T04:22:39.299Z,6.11
2019-03-27T04:23:39.292Z,6.26
2019-03-27T04:24:39.286Z,6.24
2019-03-27T04:26:07.092Z,6.26
2019-03-27T04:26:39.291Z,6.30
2019-03-27T04:27:39.282Z,6.30
2019-03-27T04:28:39.257Z,6.33
2019-03-27T04:29:39.250Z,6.33
2019-03-27T04:30:39.242Z,6.38
2019-03-27T04:31:39.236Z,6.44
2019-03-27T04:32:39.229Z,6.36
2019-03-27T04:33:39.225Z,6.38
2019-03-27T04:34:39.213Z,6.36
2019-03-27T04:35:39.207Z,6.35
2019-03-27T04:36:39.200Z,6.33
2019-03-27T04:37:39.196Z,6.30
2019-03-27T04:38:39.185Z,6.28
2019-03-27T04:39:39.179Z,6.30
2019-03-27T04:40:39.172Z,6.24
2019-03-27T04:41:39.163Z,6.26
2019-03-27T04:42:39.161Z,6.24
2019-03-27T04:43:39.156Z,6.28
2019-03-27T04:44:39.144Z,6.20
2019-03-27T04:45:39.141Z,6.26
2019-03-27T04:46:39.130Z,6.22
2019-03-27T04:47:39.123Z,6.16
2019-03-27T04:48:39.117Z,6.17
2019-03-27T04:49:39.108Z,6.31
2019-03-27T04:50:39.101Z,6.26
2019-03-27T04:51:39.094Z,6.20
2019-03-27T04:52:39.088Z,6.17
2019-03-27T04:53:39.157Z,6.20
2019-03-27T04:54:39.080Z,6.26
2019-03-27T04:55:39.067Z,6.16
2019-03-27T04:56:39.063Z,6.12
2019-03-27T04:57:39.052Z,6.09
2019-03-27T04:58:39.047Z,6.04
2019-03-27T04:59:39.040Z,6.07
2019-03-27T05:00:39.058Z,6.04
2019-03-27T05:01:39.025Z,6.08
2019-03-27T05:02:39.018Z,6.04
2019-03-27T05:03:39.017Z,6.09
2019-03-27T05:04:39.007Z,5.98
2019-03-27T05:05:38.998Z,5.99
2019-03-27T05:06:38.990Z,5.98
2019-03-27T05:07:38.983Z,5.87
2019-03-27T05:08:38.978Z,5.93
2019-03-27T05:09:38.970Z,5.90
2019-03-27T05:10:38.965Z,5.98
2019-03-27T05:11:38.959Z,5.86
2019-03-27T05:12:39.072Z,5.84
2019-03-27T05:13:38.943Z,5.83
2019-03-27T05:14:38.935Z,5.83
2019-03-27T05:15:38.931Z,5.75
2019-03-27T05:16:38.922Z,5.76
2019-03-27T05:17:45.704Z,5.79
2019-03-27T05:18:38.907Z,5.69
2019-03-27T05:19:38.901Z,5.75
2019-03-27T05:20:38.897Z,5.73
2019-03-27T05:21:38.886Z,5.71
2019-03-27T05:22:38.949Z,5.65
2019-03-27T05:23:38.872Z,5.73
2019-03-27T05:24:38.865Z,5.73
2019-03-27T05:25:38.857Z,5.71
2019-03-27T05:26:38.851Z,5.71
2019-03-27T05:27:38.845Z,5.75
2019-03-27T05:28:38.844Z,5.73
2019-03-27T05:29:38.830Z,5.84
2019-03-27T05:30:38.824Z,5.86
2019-03-27T05:31:38.818Z,5.83
2019-03-27T05:32:38.810Z,5.80
2019-03-27T05:33:38.803Z,5.82
2019-03-27T05:34:38.797Z,5.80
2019-03-27T05:35:38.790Z,5.75
2019-03-27T05:36:38.784Z,5.64
2019-03-27T05:37:38.780Z,5.71
2019-03-27T05:38:38.770Z,5.71
2019-03-27T05:39:38.763Z,5.71
2019-03-27T05:40:38.756Z,5.71
2019-03-27T05:41:38.748Z,5.68
2019-03-27T05:42:38.741Z,5.69
2019-03-27T05:43:38.735Z,5.65
2019-03-27T05:44:38.728Z,5.72
2019-03-27T05:45:38.721Z,5.71
2019-03-27T05:46:38.714Z,5.82
2019-03-27T05:47:38.707Z,5.83
2019-03-27T05:48:38.700Z,5.82
2019-03-27T05:49:38.692Z,5.80
2019-03-27T05:50:38.690Z,5.93
2019-03-27T05:51:38.680Z,5.80
2019-03-27T05:52:38.673Z,5.79
2019-03-27T05:53:38.665Z,5.79
2019-03-27T05:54:38.660Z,5.83
2019-03-27T05:55:38.652Z,5.83
2019-03-27T05:56:38.645Z,5.86
2019-03-27T05:57:38.637Z,6.04
2019-03-27T05:58:38.631Z,5.99
2019-03-27T05:59:38.625Z,6.05
2019-03-27T06:00:38.617Z,6.08
2019-03-27T06:01:38.611Z,6.20
2019-03-27T06:02:38.603Z,6.30
2019-03-27T06:03:38.602Z,6.28
2019-03-27T06:04:38.591Z,6.20
2019-03-27T06:05:38.583Z,6.19
2019-03-27T06:06:38.576Z,6.26
2019-03-27T06:07:38.572Z,6.38
2019-03-27T06:08:38.565Z,6.39
2019-03-27T06:09:38.559Z,6.45
2019-03-27T06:10:38.551Z,6.51
2019-03-27T06:11:38.546Z,6.60
2019-03-27T06:12:38.539Z,6.52
2019-03-27T06:13:38.532Z,6.57
2019-03-27T06:14:38.526Z,6.64
2019-03-27T06:15:38.518Z,6.69
2019-03-27T06:16:38.513Z,6.74
2019-03-27T06:17:38.506Z,6.77
2019-03-27T06:18:38.499Z,6.74
2019-03-27T06:19:38.494Z,6.78
2019-03-27T06:20:38.486Z,6.77
2019-03-27T06:21:38.574Z,6.78
2019-03-27T06:22:38.474Z,6.74
2019-03-27T06:23:38.470Z,6.78
2019-03-27T06:24:38.463Z,6.78
2019-03-27T06:25:38.465Z,6.84
2019-03-27T06:26:38.449Z,6.77
2019-03-27T06:27:38.443Z,6.72
2019-03-27T06:28:38.437Z,6.74
2019-03-27T06:29:38.429Z,6.60
2019-03-27T06:30:38.427Z,6.54
2019-03-27T06:31:38.420Z,6.56
2019-03-27T06:32:38.410Z,6.57
2019-03-27T06:33:38.405Z,6.60
2019-03-27T06:34:38.398Z,6.56
2019-03-27T06:35:38.395Z,6.56
2019-03-27T06:36:38.387Z,6.62
2019-03-27T06:37:38.381Z,6.66
2019-03-27T06:38:38.374Z,6.70
2019-03-27T06:39:38.366Z,6.67
2019-03-27T06:40:39.696Z,6.72
2019-03-27T06:41:38.356Z,6.85
2019-03-27T06:42:38.348Z,6.85
2019-03-27T06:43:38.341Z,6.93
2019-03-27T06:44:38.337Z,6.92
2019-03-27T06:45:38.329Z,7.05
2019-03-27T06:46:38.325Z,7.00
2019-03-27T06:47:38.317Z,7.10
2019-03-27T06:48:38.313Z,7.13
2019-03-27T06:49:38.305Z,7.21
2019-03-27T06:50:38.299Z,7.17
2019-03-27T06:51:40.240Z,7.23
2019-03-27T06:52:38.289Z,7.18
2019-03-27T06:53:38.281Z,7.29
2019-03-27T06:54:38.274Z,7.32
2019-03-27T06:55:38.269Z,7.42
2019-03-27T06:56:38.263Z,7.42
2019-03-27T06:57:38.255Z,7.47
2019-03-27T06:58:38.251Z,7.42
2019-03-27T06:59:38.243Z,7.36
2019-03-27T07:00:38.242Z,7.38
2019-03-27T07:01:38.233Z,7.43
2019-03-27T07:02:38.227Z,7.47
2019-03-27T07:03:38.222Z,7.51
2019-03-27T07:04:38.216Z,7.36
2019-03-27T07:05:38.212Z,7.36
2019-03-27T07:06:38.202Z,7.43
2019-03-27T07:07:38.196Z,7.47
2019-03-27T07:08:38.192Z,7.42
2019-03-27T07:09:38.184Z,7.39
2019-03-27T07:10:38.181Z,7.39
2019-03-27T07:11:38.174Z,7.42
2019-03-27T07:12:38.171Z,7.25
2019-03-27T07:13:38.162Z,7.33
2019-03-27T07:14:38.156Z,7.31
2019-03-27T07:15:38.151Z,7.21
2019-03-27T07:16:38.149Z,7.15
2019-03-27T07:17:38.140Z,7.24
2019-03-27T07:18:40.427Z,7.20
2019-03-27T07:19:38.127Z,7.24
2019-03-27T07:20:40.910Z,7.25
2019-03-27T07:21:38.114Z,7.25
2019-03-27T07:22:38.110Z,7.42
2019-03-27T07:23:38.102Z,7.39
2019-03-27T07:24:38.097Z,7.45
2019-03-27T07:25:38.091Z,7.56
2019-03-27T07:26:38.085Z,7.50
2019-03-27T07:27:38.082Z,7.58
2019-03-27T07:28:38.073Z,7.66
2019-03-27T07:29:38.065Z,7.75
2019-03-27T07:30:38.060Z,7.57
2019-03-27T07:31:38.055Z,7.76
2019-03-27T07:32:38.048Z,7.75
2019-03-27T07:33:38.040Z,7.70
2019-03-27T07:34:38.036Z,7.73
2019-03-27T07:35:38.028Z,7.76
2019-03-27T07:36:38.024Z,7.79
2019-03-27T07:37:38.017Z,7.77
2019-03-27T07:38:38.010Z,7.60
2019-03-27T07:39:38.006Z,7.61
2019-03-27T07:40:38.000Z,7.61
2019-03-27T07:41:37.998Z,7.63
2019-03-27T07:42:37.988Z,7.60
2019-03-27T07:43:37.982Z,7.57
2019-03-27T07:44:37.977Z,7.66
2019-03-27T07:45:37.970Z,7.72
2019-03-27T07:46:37.974Z,7.82
2019-03-27T07:47:37.959Z,7.82
2019-03-27T07:48:37.955Z,7.82
2019-03-27T07:49:37.947Z,8.00
2019-03-27T07:50:37.942Z,8.18
2019-03-27T07:51:37.935Z,8.19
2019-03-27T07:52:37.933Z,8.15
2019-03-27T07:53:37.923Z,8.20
2019-03-27T07:54:37.919Z,8.30
2019-03-27T07:55:37.913Z,8.37
2019-03-27T07:56:37.907Z,8.31
2019-03-27T07:57:37.902Z,8.34
2019-03-27T07:58:37.895Z,8.48
2019-03-27T07:59:37.890Z,8.58
2019-03-27T08:00:37.884Z,8.64
2019-03-27T08:01:37.878Z,8.78
2019-03-27T08:02:37.872Z,8.78
2019-03-27T08:03:37.866Z,8.64
2019-03-27T08:04:37.862Z,8.89
2019-03-27T08:05:37.855Z,8.84
2019-03-27T08:06:37.852Z,8.73
2019-03-27T08:07:37.847Z,8.67
2019-03-27T08:08:37.840Z,8.58
2019-03-27T08:09:37.836Z,8.44
2019-03-27T08:10:37.831Z,8.55
2019-03-27T08:11:37.967Z,8.52
2019-03-27T08:12:37.819Z,8.52
2019-03-27T08:13:37.814Z,8.61
2019-03-27T08:14:37.810Z,8.60
2019-03-27T08:15:40.704Z,8.69
2019-03-27T08:16:37.802Z,8.94
2019-03-27T08:17:37.794Z,8.89
2019-03-27T08:18:37.799Z,8.70
2019-03-27T08:19:37.790Z,8.69
2019-03-27T08:20:37.779Z,8.84
2019-03-27T08:21:37.775Z,9.03
2019-03-27T08:22:37.770Z,9.21
2019-03-27T08:23:37.765Z,9.25
2019-03-27T08:24:37.763Z,9.26
2019-03-27T08:25:37.755Z,9.29
2019-03-27T08:26:37.750Z,9.26
2019-03-27T08:27:37.744Z,9.29
2019-03-27T08:28:37.740Z,9.36
2019-03-27T08:29:37.738Z,9.48
2019-03-27T08:30:37.731Z,9.54
2019-03-27T08:31:37.730Z,9.47
2019-03-27T08:32:37.726Z,9.43
2019-03-27T08:33:37.720Z,9.58
2019-03-27T08:34:37.713Z,9.44
2019-03-27T08:35:37.711Z,9.46
2019-03-27T08:36:37.704Z,9.65
2019-03-27T08:37:37.702Z,9.79
2019-03-27T08:38:37.697Z,10.04
2019-03-27T08:39:37.697Z,10.12
2019-03-27T08:40:37.688Z,10.05
2019-03-27T08:41:37.690Z,10.09
2019-03-27T08:42:37.681Z,9.95
2019-03-27T08:43:37.678Z,9.65
2019-03-27T08:44:37.674Z,9.87
2019-03-27T08:45:37.708Z,9.97
2019-03-27T08:46:37.665Z,10.26
2019-03-27T08:47:37.664Z,10.30
2019-03-27T08:48:39.238Z,10.26
2019-03-27T08:49:37.653Z,10.37
2019-03-27T08:50:37.651Z,10.31
2019-03-27T08:51:37.653Z,10.12
2019-03-27T08:52:37.647Z,9.91
2019-03-27T08:53:37.641Z,9.69
2019-03-27T08:54:37.634Z,9.65
2019-03-27T08:55:37.633Z,9.64
2019-03-27T08:56:37.631Z,9.61
2019-03-27T08:57:37.625Z,9.56
2019-03-27T08:58:37.622Z,9.65
2019-03-27T08:59:37.617Z,9.82
2019-03-27T09:00:37.615Z,10.56
2019-03-27T09:01:37.612Z,10.46
2019-03-27T09:02:37.606Z,10.25
2019-03-27T09:03:37.605Z,9.94
2019-03-27T09:04:37.600Z,9.84
2019-03-27T09:05:37.597Z,10.07
2019-03-27T09:06:37.594Z,9.77
2019-03-27T09:07:37.591Z,9.69
2019-03-27T09:08:37.586Z,9.58
2019-03-27T09:09:37.581Z,9.50
2019-03-27T09:10:37.586Z,9.43
2019-03-27T09:11:37.585Z,9.50
2019-03-27T09:12:37.574Z,9.56
2019-03-27T09:13:37.576Z,9.65
2019-03-27T09:14:37.572Z,11.35
2019-03-27T09:15:37.563Z,11.19
2019-03-27T09:16:37.558Z,11.48
2019-03-27T09:17:37.556Z,11.23
2019-03-27T09:18:37.552Z,11.62
2019-03-27T09:19:37.554Z,11.35
2019-03-27T09:20:37.571Z,10.90
2019-03-27T09:21:37.546Z,10.71
2019-03-27T09:22:37.541Z,10.56
2019-03-27T09:23:37.539Z,10.31
2019-03-27T09:24:37.538Z,10.12
2019-03-27T09:25:37.535Z,10.17
2019-03-27T09:26:37.532Z,9.87
2019-03-27T09:27:37.532Z,9.74
2019-03-27T09:28:37.528Z,9.68
2019-03-27T09:29:37.525Z,9.95
2019-03-27T09:30:37.522Z,10.19
2019-03-27T09:31:44.685Z,9.97
2019-03-27T09:32:37.518Z,9.65
2019-03-27T09:33:37.514Z,9.51
2019-03-27T09:34:37.513Z,9.74
2019-03-27T09:35:37.511Z,11.45
2019-03-27T09:36:37.507Z,12.15
2019-03-27T09:37:37.503Z,12.07
2019-03-27T09:38:37.504Z,11.84
2019-03-27T09:39:37.499Z,11.26
2019-03-27T09:40:37.497Z,11.05
2019-03-27T09:41:37.495Z,10.93
2019-03-27T09:42:37.492Z,10.82
2019-03-27T09:43:37.491Z,10.89
2019-03-27T09:44:37.495Z,10.81
2019-03-27T09:45:37.485Z,10.67
2019-03-27T09:46:37.484Z,10.75
2019-03-27T09:47:37.487Z,10.72
2019-03-27T09:48:37.480Z,10.87
2019-03-27T09:49:48.845Z,11.55
2019-03-27T09:50:37.474Z,11.50
2019-03-27T09:51:37.473Z,11.45
2019-03-27T09:52:37.472Z,11.84
2019-03-27T09:53:37.471Z,11.66
2019-03-27T09:54:37.468Z,11.54
2019-03-27T09:55:37.467Z,11.48
2019-03-27T09:56:37.464Z,11.27
2019-03-27T09:57:37.459Z,11.25
2019-03-27T09:58:37.521Z,11.04
2019-03-27T09:59:37.460Z,11.04
2019-03-27T10:00:37.456Z,10.86
2019-03-27T10:01:37.451Z,10.86
2019-03-27T10:02:37.450Z,10.69
2019-03-27T10:03:37.449Z,10.68
2019-03-27T10:04:37.448Z,10.61
2019-03-27T10:05:37.445Z,10.54
2019-03-27T10:06:37.442Z,10.63
2019-03-27T10:07:37.440Z,11.84
2019-03-27T10:08:37.437Z,12.07
2019-03-27T10:09:37.435Z,11.75
2019-03-27T10:10:37.434Z,11.83
2019-03-27T10:11:37.431Z,12.91
2019-03-27T10:12:37.430Z,14.00
2019-03-27T10:13:37.427Z,14.32
2019-03-27T10:14:37.425Z,14.72
2019-03-27T10:15:37.423Z,15.24
2019-03-27T10:16:37.423Z,15.11
2019-03-27T10:17:37.424Z,14.14
2019-03-27T10:18:37.422Z,13.31
2019-03-27T10:19:37.423Z,13.09
2019-03-27T10:20:37.482Z,12.86
2019-03-27T10:21:37.422Z,13.16
2019-03-27T10:22:37.423Z,12.93
2019-03-27T10:23:37.423Z,12.57
2019-03-27T10:24:37.425Z,12.37
2019-03-27T10:25:37.423Z,12.29
2019-03-27T10:26:37.424Z,12.00
2019-03-27T10:27:37.427Z,11.86
2019-03-27T10:28:37.450Z,11.78
2019-03-27T10:29:37.425Z,11.69
2019-03-27T10:30:37.427Z,11.72
2019-03-27T10:31:37.427Z,11.72
2019-03-27T10:32:37.428Z,11.83
2019-03-27T10:33:37.428Z,11.52
2019-03-27T10:34:37.425Z,11.37
2019-03-27T10:35:37.426Z,11.29
2019-03-27T10:36:37.426Z,11.51
2019-03-27T10:37:37.425Z,11.43
2019-03-27T10:38:37.424Z,11.69
2019-03-27T10:39:37.427Z,12.50
2019-03-27T10:40:37.424Z,13.08
2019-03-27T10:41:37.422Z,13.38
2019-03-27T10:42:37.429Z,13.13
2019-03-27T10:43:37.425Z,12.80
2019-03-27T10:44:37.428Z,12.73
2019-03-27T10:45:37.421Z,12.61
2019-03-27T10:46:37.420Z,12.27
2019-03-27T10:47:37.455Z,12.29
2019-03-27T10:48:51.495Z,12.25
2019-03-27T10:49:37.421Z,12.29
2019-03-27T10:50:37.419Z,12.06
2019-03-27T10:51:37.508Z,12.03
2019-03-27T10:52:37.419Z,12.03
2019-03-27T10:53:37.417Z,12.12
2019-03-27T10:54:37.415Z,12.40
2019-03-27T10:55:37.414Z,12.28
2019-03-27T10:56:37.414Z,12.28
2019-03-27T10:57:37.413Z,12.40
2019-03-27T10:58:37.411Z,12.50
2019-03-27T10:59:37.412Z,12.82
2019-03-27T11:00:37.410Z,12.95
2019-03-27T11:01:37.408Z,13.09
2019-03-27T11:02:37.407Z,12.79
2019-03-27T11:03:37.407Z,12.91
2019-03-27T11:04:37.405Z,13.13
2019-03-27T11:05:37.403Z,13.27
2019-03-27T11:06:37.403Z,13.41
2019-03-27T11:07:37.402Z,13.31
2019-03-27T11:08:37.401Z,13.20
2019-03-27T11:09:37.401Z,13.04
2019-03-27T11:10:37.398Z,13.28
2019-03-27T11:11:37.400Z,13.42
2019-03-27T11:12:37.399Z,13.62
2019-03-27T11:13:37.399Z,13.70
2019-03-27T11:14:38.457Z,13.41
2019-03-27T11:15:37.396Z,13.39
2019-03-27T11:16:37.395Z,13.33
2019-03-27T11:17:37.395Z,13.37
2019-03-27T11:18:37.394Z,13.03
2019-03-27T11:19:37.396Z,12.80
2019-03-27T11:20:37.394Z,12.86
2019-03-27T11:21:37.391Z,12.98
2019-03-27T11:22:37.392Z,13.15
2019-03-27T11:23:37.393Z,13.22
2019-03-27T11:24:37.395Z,13.30
2019-03-27T11:25:37.392Z,13.46
2019-03-27T11:26:37.392Z,13.37
2019-03-27T11:27:37.390Z,13.15
2019-03-27T11:28:37.393Z,12.98
2019-03-27T11:29:37.391Z,12.82
2019-03-27T11:30:37.392Z,12.83
2019-03-27T11:31:37.389Z,12.57
2019-03-27T11:32:37.388Z,12.53
2019-03-27T11:33:37.388Z,12.46
2019-03-27T11:34:37.386Z,12.32
2019-03-27T11:35:37.387Z,12.24
2019-03-27T11:36:37.389Z,12.22
2019-03-27T11:37:37.384Z,12.37
2019-03-27T11:38:37.663Z,12.64
2019-03-27T11:39:37.384Z,12.75
2019-03-27T11:40:37.381Z,12.97
2019-03-27T11:41:37.382Z,13.08
2019-03-27T11:42:37.380Z,13.18
2019-03-27T11:43:37.382Z,13.11
2019-03-27T11:44:37.379Z,12.83
2019-03-27T11:45:37.376Z,12.80
2019-03-27T11:46:37.373Z,13.08
2019-03-27T11:47:37.376Z,12.97
2019-03-27T11:48:37.373Z,13.00
2019-03-27T11:49:37.371Z,13.08
2019-03-27T11:50:44.580Z,13.25
2019-03-27T11:51:37.367Z,13.30
2019-03-27T11:52:37.368Z,13.31
2019-03-27T11:53:37.367Z,13.23
2019-03-27T11:54:37.372Z,13.44
2019-03-27T11:55:37.365Z,13.44
2019-03-27T11:56:37.368Z,13.37
2019-03-27T11:57:37.360Z,13.19
2019-03-27T11:58:37.358Z,13.33
2019-03-27T11:59:37.359Z,13.25
2019-03-27T12:00:37.423Z,13.16
2019-03-27T12:01:42.127Z,13.28
2019-03-27T12:02:37.354Z,13.25
2019-03-27T12:03:37.355Z,13.20
2019-03-27T12:04:37.352Z,13.16
2019-03-27T12:05:37.351Z,13.01
2019-03-27T12:06:37.350Z,13.19
2019-03-27T12:07:37.350Z,13.30
2019-03-27T12:08:37.348Z,13.41
2019-03-27T12:09:37.347Z,13.35
2019-03-27T12:10:37.346Z,13.23
2019-03-27T12:11:37.345Z,13.22
2019-03-27T12:12:37.344Z,13.56
2019-03-27T12:13:37.342Z,13.63
2019-03-27T12:14:37.343Z,13.83
2019-03-27T12:15:37.342Z,13.50
2019-03-27T12:16:37.340Z,13.46
2019-03-27T12:17:37.337Z,13.46
2019-03-27T12:18:37.338Z,13.62
2019-03-27T12:19:37.971Z,13.27
2019-03-27T12:20:37.335Z,13.30
2019-03-27T12:21:37.334Z,13.30
2019-03-27T12:22:37.333Z,13.39
2019-03-27T12:23:37.335Z,13.50
2019-03-27T12:24:37.338Z,13.42
2019-03-27T12:25:37.330Z,13.39
2019-03-27T12:26:37.328Z,13.37
2019-03-27T12:27:37.328Z,13.44
2019-03-27T12:28:37.344Z,13.41
2019-03-27T12:29:37.324Z,13.28
2019-03-27T12:30:37.323Z,13.19
2019-03-27T12:31:37.324Z,13.03
2019-03-27T12:32:37.323Z,13.04
2019-03-27T12:33:37.319Z,13.41
2019-03-27T12:34:37.319Z,13.42
2019-03-27T12:35:37.323Z,13.50
2019-03-27T12:36:37.317Z,13.65
2019-03-27T12:37:37.315Z,13.56
2019-03-27T12:38:37.314Z,13.56
2019-03-27T12:39:40.504Z,13.78
2019-03-27T12:40:37.311Z,13.57
2019-03-27T12:41:37.311Z,13.33
2019-03-27T12:42:37.309Z,13.56
2019-03-27T12:43:37.308Z,13.67
2019-03-27T12:44:37.307Z,13.65
2019-03-27T12:45:37.306Z,13.57
2019-03-27T12:46:37.311Z,13.72
2019-03-27T12:47:37.304Z,13.67
2019-03-27T12:48:37.301Z,13.75
2019-03-27T12:49:37.306Z,13.74
2019-03-27T12:50:37.297Z,13.78
2019-03-27T12:51:37.297Z,13.90
2019-03-27T12:52:37.300Z,13.77
2019-03-27T12:53:37.294Z,13.81
2019-03-27T12:54:37.295Z,13.87
2019-03-27T12:55:37.295Z,13.89
2019-03-27T12:56:37.293Z,13.85
2019-03-27T12:57:37.291Z,13.81
2019-03-27T12:58:37.288Z,13.85
2019-03-27T12:59:37.286Z,13.81
2019-03-27T13:00:37.287Z,13.79
2019-03-27T13:01:37.284Z,13.62
2019-03-27T13:02:37.284Z,13.65
2019-03-27T13:03:37.282Z,13.59
2019-03-27T13:04:37.281Z,13.56
2019-03-27T13:05:37.281Z,13.63
2019-03-27T13:06:37.278Z,13.35
2019-03-27T13:07:49.402Z,13.44
2019-03-27T13:08:37.279Z,13.30
2019-03-27T13:09:37.273Z,13.20
2019-03-27T13:10:37.272Z,13.11